Terminal Aerodrome Forecast
Issued by NWS Albuquerque, NM

Current Version | Previous Version | Text Only | Print | Product List | Glossary On
Versions: 1 2 3 4 5 6 7 8 9 10 11 12 13 14
000
FTUS45 KABQ 210500
TAFABQ
TAF
KABQ 210539Z 2106/2206 16005KT P6SM FEW130
     FM212000 VRB06KT P6SM FEW120 SCT200
     FM220400 23006KT P6SM SCT090 BKN150=

USA.gov is the U.S. government's official web portal to all federal, state and local government web resources and services.